Latest Weather Observations for Port Kembla Harbour

IDN60801

Issued at 6:32 pm EST Tuesday 3 May 2016 (issued every 30 minutes, with the page automatically refreshed every 10 minutes)

About weather observations | Map of weather stations | Latest weather observations for NSW | Other Formats
Station Details ID: 068253 Name: PORT KEMBLA NTC AWS Lat: -34.47 Lon: 150.91 Height: 0.0 m
Data from the previous 72 hours. | See also: Recent months for locations in New South Wales
Date/Time
EST
Temp
°C
App
Temp
°C
Dew
Point
Rel
Hum
%
Delta-T
°C
Wind Press
QNH
hPa
Press
MSL
hPa
Rain
since 9 am
mm
Dir
 
Spd
km/h
Gust
km/h
Spd
kts
Gust
kts
03/06:30pm 22.1 - - - - WNW 19 26 10 14 1006.7 1006.7 -
03/06:00pm 22.1 - - - - W 15 20 8 11 1006.4 1006.4 -
03/05:30pm 22.3 - - - - W 11 17 6 9 1006.0 1006.0 -
03/05:00pm 22.9 - - - - W 19 24 10 13 1005.6 1005.6 -
03/04:30pm 23.9 - - - - W 19 28 10 15 1005.3 1005.3 -
03/04:00pm 24.2 - - - - WNW 19 33 10 18 1005.0 1005.0 -
03/03:30pm 24.3 - - - - WNW 17 28 9 15 1005.1 1005.1 -
03/03:00pm 24.0 - - - - WNW 24 44 13 24 1005.1 1005.1 -
03/02:47pm 24.2 - - - - WNW 28 46 15 25 1005.1 1005.1 -
03/02:30pm 23.7 - - - - WNW 20 32 11 17 1005.3 1005.3 -
03/02:00pm 23.8 - - - - WNW 30 43 16 23 1005.6 1005.6 -
03/01:48pm 23.7 - - - - WNW 28 48 15 26 1005.9 1005.9 -
03/01:30pm 23.4 - - - - WNW 26 39 14 21 1006.0 1006.0 -
03/01:00pm 23.2 - - - - WNW 22 37 12 20 1006.4 1006.4 -
03/12:30pm 22.3 - - - - NNW 20 32 11 17 1006.9 1006.9 -
03/12:00pm 21.8 - - - - NW 15 24 8 13 1007.5 1007.5 -
03/11:30am 21.1 - - - - NW 17 32 9 17 1008.2 1008.2 -
03/11:00am 20.6 - - - - WNW 28 50 15 27 1009.0 1009.0 -
03/10:56am 20.6 - - - - WNW 24 50 13 27 1009.0 1009.0 -
03/10:30am 20.0 - - - - NNW 20 33 11 18 1009.7 1009.7 -
03/10:00am 19.5 - - - - NNW 17 26 9 14 1010.3 1010.3 -
03/09:30am 18.8 - - - - NNW 20 32 11 17 1010.6 1010.6 -
03/09:00am 18.7 - - - - N 11 20 6 11 1011.2 1011.2 -
03/08:30am 18.6 - - - - N 6 15 3 8 1011.3 1011.3 -
03/08:00am 18.5 - - - - WNW 6 17 3 9 1011.1 1011.1 -
03/07:30am 17.9 - - - - WNW 11 28 6 15 1011.1 1011.1 -
03/07:00am 17.1 - - - - SSE 2 6 1 3 1011.2 1011.2 -
03/06:30am 17.4 - - - - WNW 7 15 4 8 1011.1 1011.1 -
03/06:00am 17.7 - - - - W 9 20 5 11 1010.8 1010.8 -
03/05:30am 17.9 - - - - NNW 15 20 8 11 1010.5 1010.5 -
03/05:00am 18.0 - - - - NW 9 20 5 11 1010.6 1010.6 -
03/04:30am 17.9 - - - - W 17 32 9 17 1010.7 1010.7 -
03/04:00am 18.0 - - - - W 20 35 11 19 1010.6 1010.6 -
03/03:30am 18.0 - - - - W 24 33 13 18 1010.5 1010.5 -
03/03:00am 16.9 - - - - WSW 11 22 6 12 1010.7 1010.7 -
03/02:30am 17.5 - - - - SW 7 28 4 15 1010.9 1010.9 -
03/02:00am 16.3 - - - - SW 7 11 4 6 1011.3 1011.3 -
03/01:30am 15.5 - - - - SW 7 13 4 7 1011.7 1011.7 -
03/01:00am 15.2 - - - - SW 11 15 6 8 1012.0 1012.0 -
03/12:30am 15.5 - - - - WSW 11 15 6 8 1012.5 1012.5 -
03/12:00am 15.4 - - - - WSW 20 24 11 13 1012.8 1012.8 -
 
Date/Time
EST
Temp
°C
App
Temp
°C
Dew
Point
Rel
Hum
%
Delta-T
°C
Wind Press
QNH
hPa
Press
MSL
hPa
Rain
since 9 am
mm
Dir
 
Spd
km/h
Gust
km/h
Spd
kts
Gust
kts
02/11:30pm 15.3 - - - - WSW 17 22 9 12 1012.9 1012.9 -
02/11:00pm 16.4 - - - - WSW 19 24 10 13 1013.0 1013.0 -
02/10:30pm 17.0 - - - - WSW 22 28 12 15 1013.0 1013.0 -
02/10:00pm 17.2 - - - - SW 13 17 7 9 1013.6 1013.6 -
02/09:30pm 17.9 - - - - WSW 15 24 8 13 1014.0 1014.0 -
02/09:00pm 18.2 - - - - WSW 15 20 8 11 1014.0 1014.0 -
02/08:30pm 18.4 - - - - W 11 17 6 9 1013.4 1013.4 -
02/08:00pm 18.9 - - - - WNW 13 19 7 10 1013.2 1013.2 -
02/07:30pm 19.6 - - - - W 15 22 8 12 1013.3 1013.3 -
02/07:00pm 19.4 - - - - WSW 11 15 6 8 1012.7 1012.7 -
02/06:30pm 18.2 - - - - W 9 13 5 7 1012.5 1012.5 -
02/06:00pm 18.7 - - - - SW 6 7 3 4 1011.4 1011.4 -
02/05:30pm 19.5 - - - - N 11 15 6 8 1011.6 1011.6 -
02/05:00pm 19.7 - - - - NNE 15 20 8 11 1011.3 1011.3 -
02/04:30pm 19.8 - - - - NNE 15 20 8 11 1011.4 1011.4 -
02/04:00pm 19.8 - - - - NNE 19 24 10 13 1011.4 1011.4 -
02/03:30pm 19.9 - - - - NE 20 26 11 14 1011.7 1011.7 -
02/03:00pm 20.6 - - - - NNE 13 20 7 11 1011.5 1011.5 -
02/02:30pm 20.5 - - - - NE 7 13 4 7 1011.5 1011.5 -
02/02:00pm 20.1 - - - - ENE 7 11 4 6 1011.3 1011.3 -
02/01:30pm 19.2 - - - - ENE 17 20 9 11 1011.5 1011.5 -
02/01:00pm 19.4 - - - - NE 15 22 8 12 1012.8 1012.8 -
02/12:30pm 19.3 - - - - ENE 9 13 5 7 1012.5 1012.5 -
02/12:00pm 18.8 - - - - NE 9 19 5 10 1013.0 1013.0 -
02/11:30am 18.8 - - - - NNE 6 13 3 7 1013.7 1013.7 -
02/11:00am 19.0 - - - - NNE 6 7 3 4 1014.2 1014.2 -
02/10:30am 19.0 - - - - N 4 11 2 6 1014.9 1014.9 -
02/10:00am 18.4 - - - - N 6 13 3 7 1015.4 1015.4 -
02/09:30am 16.6 - - - - W 15 26 8 14 1015.9 1015.9 -
02/09:00am 15.9 - - - - WNW 13 20 7 11 1016.4 1016.4 -
02/08:30am 15.4 - - - - WNW 17 26 9 14 1016.6 1016.6 -
02/08:00am 15.3 - - - - WNW 13 22 7 12 1016.5 1016.5 -
02/07:30am 14.8 - - - - NNW 19 24 10 13 1016.5 1016.5 -
02/07:00am 14.8 - - - - N 15 22 8 12 1016.3 1016.3 -
02/06:30am 15.0 - - - - N 15 22 8 12 1016.4 1016.4 -
02/06:00am 15.5 - - - - NNW 9 13 5 7 1016.1 1016.1 -
02/05:30am 15.4 - - - - NNW 7 13 4 7 1015.7 1015.7 -
02/05:00am 15.4 - - - - W 7 11 4 6 1015.3 1015.3 -
02/04:30am 15.4 - - - - SSW 4 6 2 3 1014.9 1014.9 -
02/04:00am 15.6 - - - - NW 2 6 1 3 1014.8 1014.8 -
02/03:30am 15.6 - - - - SE 4 7 2 4 1014.6 1014.6 -
02/03:00am 15.9 - - - - WSW 9 17 5 9 1014.5 1014.5 -
02/02:30am 16.8 - - - - W 24 35 13 19 1014.6 1014.6 -
02/02:00am 16.9 - - - - W 28 39 15 21 1015.1 1015.1 -
02/01:30am 16.7 - - - - W 20 26 11 14 1015.0 1015.0 -
02/01:00am 17.0 - - - - W 17 24 9 13 1015.2 1015.2 -
02/12:30am 17.5 - - - - W 19 28 10 15 1015.3 1015.3 -
02/12:00am 17.6 - - - - W 17 20 9 11 1015.6 1015.6 -
 
Date/Time
EST
Temp
°C
App
Temp
°C
Dew
Point
Rel
Hum
%
Delta-T
°C
Wind Press
QNH
hPa
Press
MSL
hPa
Rain
since 9 am
mm
Dir
 
Spd
km/h
Gust
km/h
Spd
kts
Gust
kts
01/11:30pm 18.2 - - - - W 17 24 9 13 1015.7 1015.7 -
01/11:00pm 18.5 - - - - W 15 20 8 11 1015.7 1015.7 -
01/10:30pm 18.3 - - - - WSW 11 19 6 10 1015.5 1015.5 -
01/10:00pm 19.1 - - - - W 7 13 4 7 1015.4 1015.4 -
01/09:30pm 19.6 - - - - W 19 30 10 16 1015.2 1015.2 -
01/09:00pm 19.8 - - - - W 17 22 9 12 1014.5 1014.5 -
01/08:30pm 20.6 - - - - W 33 48 18 26 1013.9 1013.9 -
01/08:00pm 21.1 - - - - WSW 30 44 16 24 1013.3 1013.3 -
01/07:30pm 21.5 - - - - WSW 26 39 14 21 1012.6 1012.6 -
01/07:00pm 22.5 - - - - W 22 32 12 17 1012.1 1012.1 -
01/06:30pm 23.0 - - - - W 20 28 11 15 1011.4 1011.4 -
01/06:00pm 23.6 - - - - W 15 20 8 11 1010.7 1010.7 -
01/05:30pm 24.8 - - - - W 26 35 14 19 1010.0 1010.0 -
01/05:00pm 25.5 - - - - WNW 30 46 16 25 1009.4 1009.4 -
01/04:52pm 25.7 - - - - W 28 46 15 25 1009.3 1009.3 -
01/04:30pm 26.1 - - - - W 26 37 14 20 1008.9 1008.9 -
01/04:02pm 26.8 - - - - WNW 28 54 15 29 1008.6 1008.6 -
01/04:00pm 26.4 - - - - WNW 26 43 14 23 1008.5 1008.5 -
01/03:49pm 26.6 - - - - WNW 35 59 19 32 1008.5 1008.5 -
01/03:30pm 26.3 - - - - WNW 26 37 14 20 1008.2 1008.2 -
01/03:08pm 26.4 - - - - NW 13 41 7 22 1008.1 1008.1 -
01/03:00pm 23.8 - - - - NE 6 13 3 7 1008.1 1008.1 -
01/02:30pm 22.8 - - - - NE 11 15 6 8 1008.3 1008.3 -
01/02:00pm 22.9 - - - - NE 13 19 7 10 1008.2 1008.2 -
01/01:30pm 21.7 - - - - NE 19 24 10 13 1008.3 1008.3 -
01/01:00pm 21.5 - - - - NNE 22 30 12 16 1008.6 1008.6 -
01/12:30pm 21.6 - - - - NNE 22 32 12 17 1008.8 1008.8 -
01/12:00pm 21.3 - - - - NNE 24 32 13 17 1009.6 1009.6 -
01/11:30am 21.6 - - - - N 17 24 9 13 1010.0 1010.0 -
01/11:00am 21.4 - - - - N 20 32 11 17 1010.8 1010.8 -
01/10:30am 21.0 - - - - NNW 15 24 8 13 1011.4 1011.4 -
01/10:00am 21.0 - - - - NNE 24 35 13 19 1011.4 1011.4 -
01/09:30am 21.2 - - - - NNE 28 39 15 21 1011.0 1011.0 -
01/09:00am 21.2 - - - - N 24 33 13 18 1011.4 1011.4 -
01/08:30am 21.4 - - - - NNE 24 33 13 18 1011.6 1011.6 -
01/08:00am 20.9 - - - - NE 19 24 10 13 1011.8 1011.8 -
01/07:30am 21.0 - - - - NE 20 28 11 15 1011.6 1011.6 -
01/07:00am 20.9 - - - - ESE 7 22 4 12 1012.2 1012.2 -
01/06:30am 20.1 - - - - NE 13 20 7 11 1011.8 1011.8 -
01/06:00am 21.0 - - - - NNW 11 19 6 10 1011.4 1011.4 -
01/05:30am 20.9 - - - - NW 26 33 14 18 1011.2 1011.2 -
01/05:00am 19.9 - - - - W 13 22 7 12 1011.4 1011.4 -

Other Formats:

Comma delimited format used in spreadsheet applications
http://www.bom.gov.au/fwo/IDN60801/IDN60801.95745.axf

JavaScript Object Notation format (JSON) in row-major order
http://www.bom.gov.au/fwo/IDN60801/IDN60801.95745.json